Time;durP1;ratioP1;P1;durP2;ratioP2;P2;SDS_P1;SDS_P2;PMS_P1;PMS_P2;Temp;Humidity;BMP_temperature;BMP_pressure;BME280_temperature;BME280_humidity;BME280_pressure;Samples;Min_cycle;Max_cycle;Signal;HPM_P1;HPM_P2
2021/04/23 00:00:43;;;;;;;9.60;3.50;;;;;;;6.30;48.02;99746.66;3529242;40;20138;-62
2021/04/23 00:03:28;;;;;;;8.38;3.47;;;;;;;6.20;48.35;99752.75;3530132;40;20047;-63
2021/04/23 00:05:57;;;;;;;11.23;4.78;;;;;;;6.17;48.50;99753.03;3530274;40;20054;-62
2021/04/23 00:08:24;;;;;;;10.68;3.65;;;;;;;6.17;48.40;99744.34;3529186;40;20055;-62
2021/04/23 00:10:53;;;;;;;5.03;3.35;;;;;;;6.11;48.52;99747.50;3529663;40;20051;-63
2021/04/23 00:13:20;;;;;;;14.10;4.70;;;;;;;6.03;48.59;99747.38;3530437;40;20051;-64
2021/04/23 00:15:48;;;;;;;10.20;3.92;;;;;;;5.94;48.77;99742.00;3521524;40;20059;-62
2021/04/23 00:18:15;;;;;;;8.52;3.53;;;;;;;5.91;49.06;99744.03;3537375;40;20087;-63
2021/04/23 00:20:43;;;;;;;13.60;4.45;;;;;;;5.92;49.02;99743.94;3530483;40;20437;-64
2021/04/23 00:23:12;;;;;;;11.75;4.07;;;;;;;5.89;49.08;99749.44;3529456;40;20059;-63
2021/04/23 00:25:39;;;;;;;13.52;4.30;;;;;;;5.87;48.91;99740.03;3529235;40;20047;-63
2021/04/23 00:28:09;;;;;;;10.00;3.97;;;;;;;5.85;49.28;99742.81;3528916;40;20050;-63
2021/04/23 00:30:43;;;;;;;7.63;3.72;;;;;;;5.77;49.49;99739.22;3529946;40;20048;-62
2021/04/23 00:33:10;;;;;;;11.75;3.80;;;;;;;5.70;49.75;99747.63;3521644;40;20051;-62
2021/04/23 00:35:39;;;;;;;13.00;3.78;;;;;;;5.87;50.02;99759.22;3521735;40;20373;-62
2021/04/23 00:38:10;;;;;;;7.65;3.92;;;;;;;5.91;49.67;99755.34;3530472;40;20051;-62
2021/04/23 00:40:42;;;;;;;8.00;3.88;;;;;;;5.82;49.52;99753.56;3530571;40;20035;-62
2021/04/23 00:43:09;;;;;;;7.97;3.72;;;;;;;5.76;49.75;99750.69;3529730;40;20209;-62
2021/04/23 00:45:36;;;;;;;11.57;4.18;;;;;;;5.60;50.16;99746.81;3520072;40;20067;-63
2021/04/23 00:48:06;;;;;;;10.68;4.55;;;;;;;5.66;50.11;99746.25;3529277;40;20117;-64
2021/04/23 00:50:39;;;;;;;10.55;3.80;;;;;;;5.73;50.27;99746.53;3529846;40;20055;-63
2021/04/23 00:53:09;;;;;;;10.73;4.10;;;;;;;5.78;50.21;99744.31;3529714;40;20055;-63
2021/04/23 00:55:37;;;;;;;10.18;4.00;;;;;;;5.66;50.36;99745.44;3529771;40;20058;-63
2021/04/23 00:58:06;;;;;;;13.23;4.50;;;;;;;5.54;50.66;99751.78;3529511;40;20086;-62
2021/04/23 01:00:33;;;;;;;8.65;4.47;;;;;;;5.50;51.21;99742.53;3530199;40;20047;-63
2021/04/23 01:03:00;;;;;;;11.57;3.95;;;;;;;5.47;51.18;99754.97;3529115;40;20039;-63
2021/04/23 01:05:33;;;;;;;11.10;3.67;;;;;;;5.43;51.56;99755.38;3529044;40;20111;-62
2021/04/23 01:08:00;;;;;;;8.10;4.50;;;;;;;5.47;51.63;99756.75;3529139;40;20047;-62
2021/04/23 01:10:28;;;;;;;14.00;4.35;;;;;;;5.33;51.75;99759.75;3530511;40;20058;-63
2021/04/23 01:12:55;;;;;;;8.63;4.40;;;;;;;5.22;52.17;99758.94;3530096;40;20430;-62
2021/04/23 01:15:23;;;;;;;10.40;4.25;;;;;;;5.19;52.00;99753.94;3530072;40;20051;-62
2021/04/23 01:17:50;;;;;;;10.25;4.93;;;;;;;5.06;52.69;99763.00;3530160;40;20062;-63
2021/04/23 01:20:18;;;;;;;10.68;4.47;;;;;;;4.92;53.08;99762.41;3529968;40;20047;-63
2021/04/23 01:22:46;;;;;;;12.50;4.53;;;;;;;4.99;52.82;99754.88;3530261;40;20419;-63
2021/04/23 01:25:14;;;;;;;12.20;5.15;;;;;;;4.85;52.92;99760.47;3530012;40;20071;-63
2021/04/23 01:27:41;;;;;;;11.85;4.38;;;;;;;4.83;52.84;99754.53;3529941;40;20055;-62
2021/04/23 01:30:12;;;;;;;12.57;4.13;;;;;;;4.86;53.15;99760.34;3530158;40;20083;-62
2021/04/23 01:32:40;;;;;;;9.50;4.40;;;;;;;4.81;53.21;99756.44;3529946;40;20062;-62
2021/04/23 01:35:10;;;;;;;10.93;5.05;;;;;;;4.68;53.44;99762.75;3530003;40;20325;-63
2021/04/23 01:37:37;;;;;;;12.35;4.45;;;;;;;4.65;53.42;99770.03;3529995;40;20087;-63
2021/04/23 01:40:08;;;;;;;10.25;4.78;;;;;;;4.69;53.25;99769.66;3537356;40;20079;-64
2021/04/23 01:42:35;;;;;;;15.63;4.88;;;;;;;4.67;53.41;99773.34;3530317;40;20055;-62
2021/04/23 01:45:03;;;;;;;8.90;4.10;;;;;;;4.62;53.27;99768.50;3529915;40;20106;-62
2021/04/23 01:47:30;;;;;;;9.15;3.70;;;;;;;4.70;53.41;99779.16;3529955;40;20404;-63
2021/04/23 01:49:56;;;;;;;6.68;4.38;;;;;;;4.92;53.18;99769.44;3530267;40;20483;-62
2021/04/23 01:52:24;;;;;;;8.35;4.55;;;;;;;4.85;53.04;99778.78;3530141;40;20037;-62
2021/04/23 01:54:51;;;;;;;9.10;4.65;;;;;;;4.80;53.10;99783.59;3530076;40;20079;-62
2021/04/23 01:57:20;;;;;;;8.00;4.43;;;;;;;4.84;53.53;99777.97;3529662;40;20074;-62
2021/04/23 01:59:48;;;;;;;7.55;4.60;;;;;;;4.93;53.19;99778.97;3537134;40;20071;-62
2021/04/23 02:02:15;;;;;;;10.45;4.30;;;;;;;4.98;53.11;99782.03;3529900;40;20050;-62
2021/04/23 02:04:45;;;;;;;13.25;5.05;;;;;;;4.93;53.05;99785.03;3530293;40;20039;-63
2021/04/23 02:07:15;;;;;;;12.18;4.75;;;;;;;4.81;53.14;99791.31;3530432;40;20051;-63
2021/04/23 02:09:42;;;;;;;13.35;5.03;;;;;;;4.65;53.49;99790.97;3530507;40;20079;-63
2021/04/23 02:12:10;;;;;;;16.35;5.85;;;;;;;4.47;53.78;99791.59;3530386;40;20047;-63
2021/04/23 02:14:38;;;;;;;8.80;4.82;;;;;;;4.32;54.75;99785.00;3520928;40;20079;-63
2021/04/23 02:17:06;;;;;;;11.57;5.50;;;;;;;4.50;55.11;99781.81;3520764;40;20419;-63
2021/04/23 02:19:34;;;;;;;9.02;4.55;;;;;;;4.38;54.63;99778.44;3530836;40;20043;-62
2021/04/23 02:22:01;;;;;;;11.38;4.40;;;;;;;4.35;54.38;99783.94;3530596;40;20062;-63
2021/04/23 02:24:28;;;;;;;12.52;5.18;;;;;;;4.25;54.25;99780.44;3530646;40;20563;-63
2021/04/23 02:26:55;;;;;;;16.15;5.10;;;;;;;4.13;54.53;99785.72;3529789;40;20057;-64
2021/04/23 02:29:21;;;;;;;12.15;4.90;;;;;;;4.05;54.63;99787.34;3531210;40;20049;-63
2021/04/23 02:31:52;;;;;;;10.32;4.82;;;;;;;4.02;54.90;99792.81;3530380;40;20432;-62
2021/04/23 02:34:23;;;;;;;10.70;5.10;;;;;;;3.96;54.92;99789.75;3530349;40;20062;-62
2021/04/23 02:36:51;;;;;;;9.60;5.18;;;;;;;3.89;54.97;99793.81;3530220;40;20127;-62
2021/04/23 02:39:19;;;;;;;6.85;4.55;;;;;;;3.82;55.46;99784.81;3532820;40;20051;-62
2021/04/23 02:41:50;;;;;;;12.57;5.15;;;;;;;3.78;55.34;99790.41;3525836;40;20126;-64
2021/04/23 02:44:17;;;;;;;9.82;4.50;;;;;;;3.73;55.61;99793.41;3534250;40;20059;-63
2021/04/23 02:46:44;;;;;;;10.75;5.40;;;;;;;3.76;55.56;99792.34;3533204;40;20083;-63
2021/04/23 02:49:13;;;;;;;10.40;5.72;;;;;;;3.72;55.74;99794.38;3530379;40;20051;-63
2021/04/23 02:51:44;;;;;;;20.65;5.28;;;;;;;3.80;55.58;99802.41;3530739;40;20141;-63
2021/04/23 02:54:12;;;;;;;14.05;5.15;;;;;;;3.86;55.67;99801.06;3530465;40;20412;-63
2021/04/23 02:56:39;;;;;;;13.82;5.95;;;;;;;3.90;55.52;99805.09;3530525;40;20623;-63
2021/04/23 02:59:07;;;;;;;9.95;4.68;;;;;;;3.79;55.70;99811.19;3520536;40;20051;-63
2021/04/23 03:01:37;;;;;;;15.65;5.65;;;;;;;3.72;55.82;99805.66;3530464;40;20061;-63
2021/04/23 03:04:05;;;;;;;14.77;5.55;;;;;;;3.75;56.01;99812.41;3520890;40;20047;-63
2021/04/23 03:06:33;;;;;;;10.50;5.35;;;;;;;3.83;55.72;99811.78;3520793;40;20071;-62
2021/04/23 03:09:00;;;;;;;12.02;5.93;;;;;;;3.83;55.79;99817.00;3529435;40;20385;-62
2021/04/23 03:11:28;;;;;;;12.32;5.55;;;;;;;3.84;55.79;99816.09;3529780;40;20057;-62
2021/04/23 03:13:56;;;;;;;14.27;6.15;;;;;;;3.80;56.02;99815.50;3529982;40;20055;-63
2021/04/23 03:16:24;;;;;;;11.88;5.22;;;;;;;3.71;55.92;99814.47;3529817;40;20491;-63
2021/04/23 03:18:53;;;;;;;11.00;5.40;;;;;;;3.65;56.05;99822.78;3529723;40;20068;-63
2021/04/23 03:21:25;;;;;;;11.45;5.88;;;;;;;3.58;56.63;99821.59;3530039;40;20051;-63
2021/04/23 03:23:54;;;;;;;10.65;5.65;;;;;;;3.61;56.57;99817.94;3530408;40;20055;-63
2021/04/23 03:26:22;;;;;;;10.70;5.45;;;;;;;3.50;56.89;99816.16;3530203;40;20059;-63
2021/04/23 03:28:49;;;;;;;12.93;5.70;;;;;;;3.47;56.57;99822.50;3529923;40;20066;-62
2021/04/23 03:31:17;;;;;;;10.05;5.75;;;;;;;3.50;57.05;99817.94;3536650;40;20055;-63
2021/04/23 03:33:45;;;;;;;14.45;5.75;;;;;;;3.51;56.73;99817.84;3537931;40;20051;-62
2021/04/23 03:36:13;;;;;;;13.23;5.78;;;;;;;3.40;57.04;99815.25;3531027;40;20051;-63
2021/04/23 03:38:43;;;;;;;12.60;5.85;;;;;;;3.47;57.02;99821.66;3530171;40;20059;-62
2021/04/23 03:41:14;;;;;;;13.20;5.72;;;;;;;3.42;56.99;99823.78;3529831;40;20047;-62
2021/04/23 03:43:41;;;;;;;13.48;5.07;;;;;;;3.46;56.95;99823.41;3529366;40;20028;-62
2021/04/23 03:46:10;;;;;;;16.70;5.60;;;;;;;3.51;56.95;99828.31;3520196;40;20054;-63
2021/04/23 03:48:37;;;;;;;11.60;5.43;;;;;;;3.63;57.02;99827.31;3528918;40;20322;-63
2021/04/23 03:51:05;;;;;;;14.77;7.57;;;;;;;3.69;56.58;99823.38;3520373;40;20434;-63
2021/04/23 03:53:32;;;;;;;13.63;7.53;;;;;;;3.59;56.67;99819.81;3529561;40;20053;-62
2021/04/23 03:56:00;;;;;;;11.35;5.68;;;;;;;3.39;56.84;99826.66;3520319;40;20054;-62
2021/04/23 03:58:29;;;;;;;10.50;5.68;;;;;;;3.30;57.10;99827.38;3529110;40;20114;-62
2021/04/23 04:00:59;;;;;;;12.45;5.75;;;;;;;3.18;57.45;99834.38;3529064;40;20047;-63
2021/04/23 04:03:29;;;;;;;11.20;6.43;;;;;;;3.12;57.39;99829.66;3529253;40;20055;-63
2021/04/23 04:05:58;;;;;;;15.25;5.47;;;;;;;3.08;57.97;99833.47;3529282;40;20054;-63
2021/04/23 04:08:25;;;;;;;14.68;5.88;;;;;;;3.06;57.68;99830.13;3528937;40;20074;-63
2021/04/23 04:10:52;;;;;;;10.15;5.18;;;;;;;3.02;57.97;99828.69;3529138;40;20071;-63
2021/04/23 04:13:19;;;;;;;9.15;5.28;;;;;;;3.00;58.02;99834.06;3529286;40;20051;-63
2021/04/23 04:15:51;;;;;;;12.80;5.97;;;;;;;2.91;58.20;99834.78;3529426;40;20049;-62
2021/04/23 04:18:18;;;;;;;16.25;6.80;;;;;;;2.82;58.59;99835.50;3529380;40;20356;-64
2021/04/23 04:20:48;;;;;;;12.23;6.32;;;;;;;2.71;58.87;99847.56;3529195;40;20051;-63
2021/04/23 04:23:17;;;;;;;9.55;5.63;;;;;;;2.74;58.79;99849.13;3529706;40;20389;-63
2021/04/23 04:25:47;;;;;;;15.10;6.00;;;;;;;2.79;58.77;99851.38;3520369;40;20397;-63
2021/04/23 04:28:14;;;;;;;15.68;7.13;;;;;;;2.77;58.52;99848.03;3520012;40;20047;-62
2021/04/23 04:30:42;;;;;;;13.25;6.40;;;;;;;2.77;58.75;99854.09;3528962;40;20036;-62
2021/04/23 04:33:10;;;;;;;12.10;6.55;;;;;;;2.77;58.62;99854.09;3529210;40;20381;-61
2021/04/23 04:35:38;;;;;;;13.90;6.65;;;;;;;2.73;58.65;99860.50;3529166;40;20063;-62
2021/04/23 04:38:07;;;;;;;13.85;6.32;;;;;;;2.68;58.63;99857.41;3528673;40;20058;-62
2021/04/23 04:40:35;;;;;;;11.68;6.55;;;;;;;2.66;58.99;99860.16;3529289;40;20031;-62
2021/04/23 04:43:04;;;;;;;18.75;6.93;;;;;;;2.70;59.12;99865.97;3529369;40;20054;-62
2021/04/23 04:45:32;;;;;;;17.95;7.10;;;;;;;2.74;59.11;99862.19;3530612;40;20074;-63
2021/04/23 04:47:59;;;;;;;15.15;6.47;;;;;;;2.82;59.05;99864.22;3530669;40;20365;-62
2021/04/23 04:50:29;;;;;;;19.73;6.68;;;;;;;2.94;58.78;99860.66;3530422;40;20078;-62
2021/04/23 04:52:57;;;;;;;16.92;6.97;;;;;;;3.02;58.56;99860.91;3530574;40;20085;-62
2021/04/23 04:55:27;;;;;;;16.27;6.47;;;;;;;3.08;58.37;99868.25;3537626;40;20078;-62
2021/04/23 04:57:54;;;;;;;9.48;6.18;;;;;;;3.15;58.03;99871.22;3530559;40;20329;-62
2021/04/23 05:00:22;;;;;;;13.25;6.70;;;;;;;3.25;58.09;99876.56;3530971;40;20047;-62
2021/04/23 05:02:48;;;;;;;16.80;6.95;;;;;;;3.35;58.00;99874.91;3530822;40;20438;-62
2021/04/23 05:05:16;;;;;;;15.23;6.43;;;;;;;3.43;57.75;99882.97;3521354;40;20043;-62
2021/04/23 05:07:44;;;;;;;12.60;6.88;;;;;;;3.46;57.47;99872.25;3530535;40;20082;-63
2021/04/23 05:10:12;;;;;;;19.05;7.78;;;;;;;3.43;57.26;99886.41;3530170;40;20124;-62
2021/04/23 05:12:39;;;;;;;12.75;7.20;;;;;;;3.39;57.30;99885.00;3530461;40;20589;-62
2021/04/23 05:15:08;;;;;;;16.63;7.68;;;;;;;3.39;57.54;99881.56;3530502;40;20047;-62
2021/04/23 05:17:35;;;;;;;15.27;7.57;;;;;;;3.44;57.53;99879.41;3530252;40;20055;-62
2021/04/23 05:20:03;;;;;;;20.98;8.52;;;;;;;3.46;57.99;99880.94;3530374;40;20067;-62
2021/04/23 05:22:30;;;;;;;19.42;7.75;;;;;;;3.59;57.63;99886.06;3530272;40;20054;-63
2021/04/23 05:24:57;;;;;;;19.48;8.32;;;;;;;3.64;57.94;99885.69;3530528;40;20050;-63
2021/04/23 05:27:24;;;;;;;20.52;7.85;;;;;;;3.74;57.89;99889.22;3537672;40;20077;-62
2021/04/23 05:29:50;;;;;;;15.52;8.40;;;;;;;3.86;57.41;99888.22;3537875;40;20071;-62
2021/04/23 05:32:20;;;;;;;18.63;7.93;;;;;;;3.87;57.03;99891.66;3530444;40;20058;-63
2021/04/23 05:34:47;;;;;;;20.25;7.47;;;;;;;3.84;57.47;99890.16;3521264;40;20031;-62
2021/04/23 05:37:14;;;;;;;17.42;6.90;;;;;;;3.90;57.31;99894.88;3529834;40;20321;-63
2021/04/23 05:39:42;;;;;;;18.30;8.25;;;;;;;4.09;57.35;99896.03;3530296;40;20032;-63
2021/04/23 05:42:10;;;;;;;21.05;10.05;;;;;;;4.34;57.10;99893.06;3530674;40;20053;-61
2021/04/23 05:44:37;;;;;;;21.23;6.88;;;;;;;4.48;56.44;99897.97;3530905;40;20061;-63
2021/04/23 05:47:05;;;;;;;17.38;7.13;;;;;;;4.53;55.81;99904.63;3537396;40;20316;-63
2021/04/23 05:49:32;;;;;;;18.25;6.97;;;;;;;4.65;55.73;99900.97;3530451;40;20062;-62
2021/04/23 05:51:59;;;;;;;16.58;7.65;;;;;;;4.62;55.36;99912.56;3530801;40;20059;-63
2021/04/23 05:54:26;;;;;;;15.68;8.30;;;;;;;4.62;55.56;99906.50;3530366;40;20070;-62
2021/04/23 05:56:53;;;;;;;16.30;7.13;;;;;;;4.71;55.86;99910.97;3530899;40;20066;-62
2021/04/23 05:59:20;;;;;;;13.05;7.55;;;;;;;4.85;55.83;99912.41;3522061;40;20051;-64
2021/04/23 06:01:47;;;;;;;13.48;8.20;;;;;;;4.99;55.46;99911.28;3523375;40;20058;-64
2021/04/23 06:04:15;;;;;;;13.95;7.13;;;;;;;5.12;55.52;99914.50;3523799;40;20051;-62
2021/04/23 06:06:41;;;;;;;16.23;7.82;;;;;;;5.19;54.68;99913.03;3532506;40;20062;-62
2021/04/23 06:09:09;;;;;;;15.65;7.57;;;;;;;5.18;54.67;99916.59;3532918;40;20047;-62
2021/04/23 06:11:36;;;;;;;20.33;8.00;;;;;;;5.21;54.90;99911.91;3532969;40;20036;-62
2021/04/23 06:14:03;;;;;;;19.35;8.18;;;;;;;5.34;55.05;99903.00;3532910;40;20058;-62
2021/04/23 06:16:31;;;;;;;18.30;7.80;;;;;;;5.54;54.81;99917.03;3533417;40;20027;-63
2021/04/23 06:18:58;;;;;;;22.13;8.13;;;;;;;5.64;54.32;99916.09;3532665;40;20055;-63
2021/04/23 06:21:25;;;;;;;15.27;7.60;;;;;;;5.81;54.24;99908.53;3532775;40;20389;-62
2021/04/23 06:23:51;;;;;;;15.48;7.35;;;;;;;5.95;54.09;99914.25;3533078;40;20050;-62
2021/04/23 06:26:18;;;;;;;13.98;7.10;;;;;;;6.05;53.55;99914.28;3532752;40;20055;-62
2021/04/23 06:28:45;;;;;;;13.32;7.60;;;;;;;6.22;53.68;99919.81;3530353;40;20054;-62
2021/04/23 06:31:14;;;;;;;17.30;7.07;;;;;;;6.32;53.43;99918.84;3530329;40;20122;-64
2021/04/23 06:33:46;;;;;;;14.27;8.13;;;;;;;6.46;53.44;99917.63;3530596;40;20058;-63
2021/04/23 06:36:14;;;;;;;19.75;11.82;;;;;;;6.55;52.95;99913.31;3520929;40;20043;-63
2021/04/23 06:38:41;;;;;;;19.02;8.60;;;;;;;6.73;52.78;99916.06;3529679;40;20055;-64
2021/04/23 06:41:09;;;;;;;17.85;8.50;;;;;;;6.86;52.33;99921.88;3529666;40;20106;-63
2021/04/23 06:43:36;;;;;;;17.48;8.07;;;;;;;6.94;52.14;99925.44;3529573;40;20047;-65
2021/04/23 06:46:07;;;;;;;17.42;8.07;;;;;;;7.02;51.88;99921.25;3529933;40;20047;-64
2021/04/23 06:48:34;;;;;;;19.20;8.07;;;;;;;7.11;51.57;99923.88;3529754;40;20091;-64
2021/04/23 06:51:04;;;;;;;13.82;7.35;;;;;;;7.19;51.65;99921.34;3529882;40;20094;-64
2021/04/23 06:53:31;;;;;;;20.95;9.13;;;;;;;7.25;51.23;99927.00;3529522;40;20090;-64
2021/04/23 06:56:01;;;;;;;17.98;8.75;;;;;;;7.30;51.29;99919.50;3529843;40;20390;-64
2021/04/23 06:58:28;;;;;;;20.92;9.88;;;;;;;7.42;51.20;99924.44;3530095;40;20293;-64
2021/04/23 07:00:54;;;;;;;14.65;8.98;;;;;;;7.56;50.66;99911.81;3531565;40;20051;-64
2021/04/23 07:03:22;;;;;;;14.30;6.60;;;;;;;7.65;50.80;99926.72;3530783;40;20047;-63
2021/04/23 07:05:49;;;;;;;21.60;7.70;;;;;;;7.86;50.31;99918.56;3529685;40;20050;-64
2021/04/23 07:08:17;;;;;;;20.75;8.50;;;;;;;7.97;49.41;99917.53;3520329;40;20062;-64
2021/04/23 07:10:44;;;;;;;21.15;8.20;;;;;;;8.06;49.68;99921.88;3529764;40;20051;-64
2021/04/23 07:13:12;;;;;;;22.55;8.13;;;;;;;8.18;49.41;99918.88;3529704;40;20043;-64
2021/04/23 07:15:40;;;;;;;13.50;8.30;;;;;;;8.29;49.36;99920.47;3529595;40;20056;-62
2021/04/23 07:18:07;;;;;;;17.85;8.65;;;;;;;8.43;49.41;99913.88;3530002;40;20035;-63
2021/04/23 07:20:40;;;;;;;17.77;7.72;;;;;;;8.61;49.49;99919.97;3530414;40;20051;-62
2021/04/23 07:23:07;;;;;;;15.88;7.00;;;;;;;8.77;48.60;99927.16;3530805;40;20058;-63
2021/04/23 07:25:36;;;;;;;14.93;7.35;;;;;;;8.91;47.89;99929.25;3530084;40;20043;-63
2021/04/23 07:28:03;;;;;;;15.18;7.95;;;;;;;8.98;47.78;99925.97;3521094;40;20119;-64
2021/04/23 07:30:32;;;;;;;13.23;6.68;;;;;;;9.05;47.16;99922.56;3532141;40;20035;-63
2021/04/23 07:33:00;;;;;;;20.08;9.43;;;;;;;9.11;47.17;99927.25;3529313;40;20058;-63
2021/04/23 07:35:27;;;;;;;12.75;7.40;;;;;;;9.14;46.89;99931.34;3529659;40;20401;-63
2021/04/23 07:37:55;;;;;;;15.32;7.05;;;;;;;9.22;46.78;99923.50;3529282;40;20078;-63
2021/04/23 07:40:22;;;;;;;18.20;7.45;;;;;;;9.18;46.66;99927.44;3529883;40;20051;-63
2021/04/23 07:42:50;;;;;;;12.77;6.38;;;;;;;9.31;46.27;99941.03;3531287;40;20051;-63
2021/04/23 07:45:18;;;;;;;13.45;7.47;;;;;;;9.39;45.81;99929.72;3529786;40;20090;-63
2021/04/23 07:47:46;;;;;;;12.07;6.65;;;;;;;9.35;46.33;99929.19;3529397;40;20087;-63
2021/04/23 07:50:16;;;;;;;17.08;9.30;;;;;;;9.54;46.23;99929.94;3520886;40;20051;-64
2021/04/23 07:52:44;;;;;;;15.07;8.65;;;;;;;9.64;45.67;99928.00;3529421;40;20086;-63
2021/04/23 07:55:12;;;;;;;19.63;9.40;;;;;;;9.72;44.95;99925.41;3529557;40;20080;-63
2021/04/23 07:57:39;;;;;;;16.38;7.72;;;;;;;9.73;45.01;99916.47;3520131;40;20337;-63
2021/04/23 08:00:09;;;;;;;20.17;8.98;;;;;;;9.80;44.87;99914.03;3529525;40;20080;-68
2021/04/23 08:02:41;;;;;;;16.23;8.10;;;;;;;9.88;44.59;99920.16;3530353;40;20138;-63
2021/04/23 08:05:10;;;;;;;16.05;7.93;;;;;;;9.96;44.35;99922.00;3529590;40;20051;-65
2021/04/23 08:07:57;;;;;;;17.90;7.85;;;;;;;10.02;44.19;99916.06;3536390;40;20043;-65
2021/04/23 08:10:24;;;;;;;13.27;7.25;;;;;;;10.14;44.31;99913.94;3529199;40;20047;-64
2021/04/23 08:12:52;;;;;;;18.45;7.97;;;;;;;10.29;43.63;99914.19;3529494;40;20088;-64
2021/04/23 08:15:23;;;;;;;12.55;7.85;;;;;;;10.28;43.33;99909.84;3529417;40;20034;-64
2021/04/23 08:17:51;;;;;;;14.68;7.28;;;;;;;10.29;43.16;99911.53;3529821;40;20083;-63
2021/04/23 08:20:18;;;;;;;14.85;8.02;;;;;;;10.37;42.95;99911.53;3532097;40;20083;-64
2021/04/23 08:22:45;;;;;;;13.05;8.27;;;;;;;10.37;42.30;99904.44;3533661;40;20106;-62
2021/04/23 08:25:14;;;;;;;19.48;8.60;;;;;;;10.45;41.80;99914.19;3532878;40;20360;-64
2021/04/23 08:27:41;;;;;;;23.48;7.93;;;;;;;10.43;42.42;99907.41;3532222;40;20047;-64
2021/04/23 08:30:10;;;;;;;13.90;7.97;;;;;;;10.39;42.19;99909.53;3533828;40;20057;-67
2021/04/23 08:32:37;;;;;;;13.35;7.82;;;;;;;10.48;42.24;99910.38;3534556;40;20046;-64
2021/04/23 08:35:07;;;;;;;14.95;7.63;;;;;;;10.58;42.00;99908.41;3534133;40;20338;-63
2021/04/23 08:37:34;;;;;;;12.95;8.18;;;;;;;10.74;41.96;99904.94;3533241;40;20057;-63
2021/04/23 08:40:01;;;;;;;16.90;7.15;;;;;;;10.62;41.53;99915.00;3590160;23;20055;-68
2021/04/23 08:42:28;;;;;;;12.43;7.10;;;;;;;10.57;41.42;99904.94;3540554;40;20105;-66
2021/04/23 08:44:55;;;;;;;15.02;8.15;;;;;;;10.76;40.96;99910.88;3540391;40;20047;-66
2021/04/23 08:47:22;;;;;;;13.50;8.20;;;;;;;10.85;41.53;99904.56;3540616;40;20396;-66
2021/04/23 08:49:50;;;;;;;16.70;7.75;;;;;;;11.06;41.64;99907.53;3539629;40;20337;-66
2021/04/23 08:52:18;;;;;;;13.85;7.00;;;;;;;11.22;40.77;99908.47;3530796;40;20054;-67
2021/04/23 08:54:45;;;;;;;14.68;7.35;;;;;;;11.23;40.51;99904.84;3521675;40;20090;-66
2021/04/23 08:57:11;;;;;;;15.25;7.55;;;;;;;11.22;40.70;99909.28;3530787;40;20059;-66
2021/04/23 08:59:38;;;;;;;12.18;6.75;;;;;;;11.09;41.32;99904.53;3530653;40;20047;-65
2021/04/23 09:02:05;;;;;;;15.25;8.73;;;;;;;11.18;41.11;99901.84;3530749;40;20058;-65
2021/04/23 09:04:33;;;;;;;18.38;9.98;;;;;;;11.33;40.73;99902.81;3530719;40;20381;-66
2021/04/23 09:07:01;;;;;;;15.05;8.18;;;;;;;11.43;40.21;99906.09;3530197;40;20051;-65
2021/04/23 09:09:35;;;;;;;17.55;7.65;;;;;;;11.45;40.13;99906.75;3530697;40;20043;-67
2021/04/23 09:12:16;;;;;;;13.70;7.05;;;;;;;11.23;40.49;99900.38;3531272;40;20130;-66
2021/04/23 09:14:44;;;;;;;12.88;6.93;;;;;;;11.38;39.60;99903.94;3536129;40;20356;-66
2021/04/23 09:17:11;;;;;;;13.95;7.50;;;;;;;11.51;39.39;99899.91;3535664;40;20047;-66
2021/04/23 09:19:38;;;;;;;16.35;8.63;;;;;;;11.58;39.40;99899.06;3536330;40;20047;-66
2021/04/23 09:22:08;;;;;;;19.35;9.70;;;;;;;11.70;39.10;99894.22;3537172;40;20051;-66
2021/04/23 09:24:36;;;;;;;20.63;14.40;;;;;;;11.72;39.03;99899.34;3536680;40;20054;-67
2021/04/23 09:27:12;;;;;;;13.80;6.35;;;;;;;11.71;38.43;99897.69;3532334;40;20055;-66
2021/04/23 09:29:41;;;;;;;17.77;7.78;;;;;;;11.54;38.02;99905.69;3531342;40;20062;-66
2021/04/23 09:32:11;;;;;;;11.85;5.82;;;;;;;11.58;37.33;99903.53;3531430;40;20054;-65
2021/04/23 09:34:50;;;;;;;9.20;6.55;;;;;;;11.84;37.08;99909.41;3531842;40;20528;-66
2021/04/23 09:37:18;;;;;;;12.73;6.93;;;;;;;11.88;37.41;99900.13;3530940;40;20062;-65
2021/04/23 09:39:46;;;;;;;8.90;5.80;;;;;;;11.89;37.64;99903.59;3530903;40;20047;-66
2021/04/23 09:42:15;;;;;;;12.68;6.63;;;;;;;11.84;37.65;99898.81;3531016;40;20385;-66
2021/04/23 09:44:44;;;;;;;10.95;5.72;;;;;;;12.01;36.48;99911.97;3521684;40;20401;-65
2021/04/23 09:47:14;;;;;;;10.18;5.72;;;;;;;12.14;36.08;99893.66;3530588;40;20066;-65
2021/04/23 09:49:42;;;;;;;10.75;6.30;;;;;;;12.37;35.82;99901.63;3530925;40;20051;-65
2021/04/23 09:52:12;;;;;;;15.70;9.20;;;;;;;12.56;35.29;99893.16;3530796;40;20051;-65
2021/04/23 09:54:45;;;;;;;12.75;6.97;;;;;;;12.51;35.58;99892.88;3530732;40;20083;-66
2021/04/23 09:57:15;;;;;;;13.38;7.45;;;;;;;12.48;35.39;99898.53;3531043;40;20059;-66
2021/04/23 09:59:51;;;;;;;11.20;5.47;;;;;;;12.55;34.24;99890.72;3531870;40;20053;-66
2021/04/23 10:02:20;;;;;;;12.75;6.60;;;;;;;12.71;34.56;99890.56;3521941;40;20145;-66
2021/04/23 10:04:47;;;;;;;9.43;6.82;;;;;;;12.82;34.93;99884.00;3530809;40;20047;-67
2021/04/23 10:07:23;;;;;;;12.80;6.10;;;;;;;12.84;35.78;99882.00;3530390;40;20059;-64
2021/04/23 10:09:57;;;;;;;11.07;6.25;;;;;;;12.87;35.30;99876.31;3530974;40;20046;-65
2021/04/23 10:12:37;;;;;;;9.65;6.30;;;;;;;12.98;34.50;99878.53;3521797;40;20062;-66
2021/04/23 10:15:12;;;;;;;11.57;6.95;;;;;;;12.94;34.28;99874.59;3530887;40;20047;-65
2021/04/23 10:17:40;;;;;;;13.25;6.35;;;;;;;13.08;33.45;99876.44;3530584;40;20063;-66
2021/04/23 10:20:10;;;;;;;11.40;5.65;;;;;;;13.06;33.49;99882.91;3530868;40;20137;-66
2021/04/23 10:22:37;;;;;;;11.75;5.60;;;;;;;13.06;32.77;99880.25;3530570;40;20058;-66
2021/04/23 10:25:07;;;;;;;11.15;5.25;;;;;;;13.10;32.52;99873.56;3531585;40;20051;-66
2021/04/23 10:27:35;;;;;;;12.43;5.82;;;;;;;13.13;32.74;99878.53;3522198;40;20090;-66
2021/04/23 10:30:07;;;;;;;9.10;6.00;;;;;;;13.21;32.48;99881.09;3531192;40;20035;-65
2021/04/23 10:32:49;;;;;;;10.48;5.82;;;;;;;13.16;32.83;99872.03;3531095;40;20091;-65
2021/04/23 10:35:18;;;;;;;8.35;6.15;;;;;;;13.14;33.59;99870.41;3530972;40;20057;-66
2021/04/23 10:37:46;;;;;;;13.38;6.18;;;;;;;13.17;33.30;99873.69;3530679;40;20061;-65
2021/04/23 10:40:18;;;;;;;9.15;5.15;;;;;;;13.20;32.43;99868.00;3522098;40;20114;-65
2021/04/23 10:42:53;;;;;;;9.82;5.45;;;;;;;13.23;32.23;99865.03;3531726;40;20058;-67
2021/04/23 10:45:27;;;;;;;9.45;6.10;;;;;;;13.33;33.02;99865.56;3530671;40;20078;-66
2021/04/23 10:47:57;;;;;;;11.05;6.22;;;;;;;13.50;32.22;99867.00;3530649;40;20051;-65
2021/04/23 10:50:26;;;;;;;12.05;6.13;;;;;;;13.63;31.69;99875.16;3530936;40;20302;-66
2021/04/23 10:53:07;;;;;;;12.52;5.57;;;;;;;13.80;30.56;99862.47;3530950;40;20082;-66
2021/04/23 10:55:50;;;;;;;11.63;5.78;;;;;;;13.87;30.85;99867.84;3530850;40;20091;-65
2021/04/23 10:58:34;;;;;;;10.15;7.15;;;;;;;13.84;29.90;99871.72;3521261;40;20070;-65
2021/04/23 11:01:03;;;;;;;10.10;6.50;;;;;;;13.86;29.96;99864.34;3530381;40;20405;-65
2021/04/23 11:03:33;;;;;;;9.55;5.78;;;;;;;13.94;30.21;99862.59;3531252;40;20074;-65
2021/04/23 11:06:03;;;;;;;9.73;5.70;;;;;;;13.97;29.95;99851.59;3533884;40;20110;-65
2021/04/23 11:08:33;;;;;;;11.32;5.75;;;;;;;14.11;30.52;99856.84;3534564;40;20288;-64
2021/04/23 11:11:19;;;;;;;11.77;5.65;;;;;;;14.18;30.28;99853.44;3535106;40;20058;-65
2021/04/23 11:13:48;;;;;;;9.48;5.47;;;;;;;14.16;30.16;99856.28;3535276;40;20100;-64
2021/04/23 11:16:34;;;;;;;8.23;4.68;;;;;;;14.16;29.41;99852.78;3534942;40;20087;-65
2021/04/23 11:19:33;;;;;;;10.25;4.47;;;;;;;14.17;28.54;99849.97;3530188;40;20249;-65
2021/04/23 11:22:06;;;;;;;11.98;4.22;;;;;;;14.34;27.94;99850.53;3530037;40;20051;-66
2021/04/23 11:24:34;;;;;;;7.40;4.15;;;;;;;14.49;25.94;99850.44;3521011;40;20055;-66
2021/04/23 11:27:12;;;;;;;7.63;3.78;;;;;;;14.23;26.23;99846.53;3529266;40;20328;-66
2021/04/23 11:29:42;;;;;;;6.32;4.30;;;;;;;14.30;26.38;99839.44;3530079;40;20075;-65
2021/04/23 11:32:19;;;;;;;9.90;5.05;;;;;;;14.61;26.23;99847.09;3530093;40;20047;-65
2021/04/23 11:34:48;;;;;;;11.45;5.97;;;;;;;14.51;26.68;99835.94;3529621;40;20077;-65
2021/04/23 11:37:16;;;;;;;12.68;5.20;;;;;;;14.56;25.83;99836.19;3529939;40;20047;-65
2021/04/23 11:39:47;;;;;;;8.15;4.80;;;;;;;14.78;26.12;99836.97;3529803;40;20059;-65